createdAt,value
2018-01-22T00:00:38.579Z,0.10
2018-01-22T00:03:07.354Z,0.10
2018-01-22T00:05:35.351Z,0.10
2018-01-22T00:08:03.362Z,0.10
2018-01-22T00:10:32.119Z,0.10
2018-01-22T00:13:00.124Z,0.10
2018-01-22T00:15:28.123Z,0.20
2018-01-22T00:17:56.892Z,0.20
2018-01-22T00:20:24.887Z,0.10
2018-01-22T00:22:52.880Z,0.20
2018-01-22T00:25:20.887Z,0.30
2018-01-22T00:27:48.891Z,0.20
2018-01-22T00:30:16.888Z,0.20
2018-01-22T00:32:44.895Z,0.20
2018-01-22T00:35:12.903Z,0.20
2018-01-22T00:37:41.647Z,0.20
2018-01-22T00:40:09.655Z,0.20
2018-01-22T00:42:37.652Z,0.20
2018-01-22T00:45:05.665Z,0.20
2018-01-22T00:47:34.440Z,0.20
2018-01-22T00:50:02.427Z,0.10
2018-01-22T00:52:31.193Z,0.20
2018-01-22T00:54:59.183Z,0.20
2018-01-22T00:57:27.188Z,0.30
2018-01-22T00:59:55.180Z,0.30
2018-01-22T01:02:23.943Z,0.20
2018-01-22T01:04:51.947Z,0.20
2018-01-22T01:07:19.930Z,0.20
2018-01-22T01:09:47.932Z,0.20
2018-01-22T01:12:16.692Z,0.20
2018-01-22T01:14:44.684Z,0.20
2018-01-22T01:17:12.694Z,0.20
2018-01-22T01:19:41.467Z,0.30
2018-01-22T01:22:09.456Z,0.20
2018-01-22T01:24:37.471Z,0.20
2018-01-22T01:27:05.476Z,0.30
2018-01-22T01:29:33.467Z,0.30
2018-01-22T01:32:01.472Z,0.30
2018-01-22T01:34:29.503Z,0.20
2018-01-22T01:36:57.491Z,0.30
2018-01-22T01:39:25.487Z,0.20
2018-01-22T01:41:53.492Z,0.30
2018-01-22T01:44:21.487Z,0.20
2018-01-22T01:46:49.552Z,0.20
2018-01-22T01:49:17.612Z,0.20
2018-01-22T01:51:45.648Z,0.20
2018-01-22T01:54:13.694Z,0.20
2018-01-22T01:56:41.759Z,0.30
2018-01-22T01:59:10.585Z,0.30
2018-01-22T02:01:38.616Z,0.30
2018-01-22T02:04:06.665Z,0.40
2018-01-22T02:06:34.692Z,0.40
2018-01-22T02:09:03.513Z,0.40
2018-01-22T02:11:32.304Z,0.40
2018-01-22T02:14:01.145Z,0.40
2018-01-22T02:16:29.188Z,0.40
2018-01-22T02:18:58.000Z,0.50
2018-01-22T02:21:26.812Z,0.50
2018-01-22T02:23:54.844Z,0.40
2018-01-22T02:26:22.888Z,0.50
2018-01-22T02:28:50.916Z,0.50
2018-01-22T02:31:18.973Z,0.50
2018-01-22T02:33:47.024Z,0.50
2018-01-22T02:36:15.064Z,0.40
2018-01-22T02:38:43.923Z,0.50
2018-01-22T02:41:11.952Z,0.40
2018-01-22T02:43:40.004Z,0.50
2018-01-22T02:46:08.033Z,0.40
2018-01-22T02:48:36.960Z,0.40
2018-01-22T02:51:05.778Z,0.40
2018-01-22T02:53:33.812Z,0.40
2018-01-22T02:56:01.875Z,0.40
2018-01-22T02:58:29.912Z,0.40
2018-01-22T03:00:58.728Z,0.30
2018-01-22T03:03:26.780Z,0.30
2018-01-22T03:05:55.600Z,0.30
2018-01-22T03:08:24.428Z,0.40
2018-01-22T03:10:52.473Z,0.40
2018-01-22T03:13:20.521Z,0.40
2018-01-22T03:15:48.554Z,0.40
2018-01-22T03:18:17.368Z,0.40
2018-01-22T03:20:45.429Z,0.30
2018-01-22T03:23:14.222Z,0.30
2018-01-22T03:25:42.276Z,0.30
2018-01-22T03:28:10.300Z,0.30
2018-01-22T03:30:39.136Z,0.20
2018-01-22T03:33:07.177Z,0.20
2018-01-22T03:35:35.991Z,0.30
2018-01-22T03:38:04.796Z,0.30
2018-01-22T03:40:33.592Z,0.30
2018-01-22T03:43:02.405Z,0.30
2018-01-22T03:45:30.445Z,0.30
2018-01-22T03:47:58.484Z,0.40
2018-01-22T03:50:26.516Z,0.30
2018-01-22T03:52:56.073Z,0.20
2018-01-22T03:55:24.128Z,0.20
2018-01-22T03:57:52.161Z,0.30
2018-01-22T04:00:20.208Z,0.30
2018-01-22T04:02:48.241Z,0.30
2018-01-22T04:05:16.287Z,0.30
2018-01-22T04:07:45.093Z,0.30
2018-01-22T04:10:13.916Z,0.30
2018-01-22T04:12:41.945Z,0.30
2018-01-22T04:15:10.005Z,0.30
2018-01-22T04:17:38.076Z,0.30
2018-01-22T04:20:06.122Z,0.30
2018-01-22T04:22:34.932Z,0.30
2018-01-22T04:25:02.956Z,0.30
2018-01-22T04:27:31.024Z,0.30
2018-01-22T04:29:59.060Z,0.30
2018-01-22T04:32:27.104Z,0.30
2018-01-22T04:34:55.136Z,0.30
2018-01-22T04:37:23.953Z,0.20
2018-01-22T04:39:51.972Z,0.20
2018-01-22T04:42:20.012Z,0.30
2018-01-22T04:44:48.819Z,0.30
2018-01-22T04:47:16.852Z,0.20
2018-01-22T04:49:44.884Z,0.20
2018-01-22T04:52:13.696Z,0.30
2018-01-22T04:54:41.724Z,0.20
2018-01-22T04:57:09.761Z,0.20
2018-01-22T04:59:37.823Z,0.30
2018-01-22T05:02:05.841Z,0.40
2018-01-22T05:04:33.899Z,0.30
2018-01-22T05:07:02.728Z,0.30
2018-01-22T05:09:30.771Z,0.20
2018-01-22T05:11:58.815Z,0.30
2018-01-22T05:14:26.844Z,0.30
2018-01-22T05:16:55.664Z,0.30
2018-01-22T05:19:23.700Z,0.30
2018-01-22T05:21:51.739Z,0.30
2018-01-22T05:24:19.780Z,0.30
2018-01-22T05:26:47.833Z,0.30
2018-01-22T05:29:15.876Z,0.30
2018-01-22T05:31:43.912Z,0.30
2018-01-22T05:34:11.969Z,0.40
2018-01-22T05:36:39.994Z,0.30
2018-01-22T05:39:09.545Z,0.30
2018-01-22T05:41:38.348Z,0.30
2018-01-22T05:44:07.180Z,0.20
2018-01-22T05:46:35.228Z,0.20
2018-01-22T05:49:04.026Z,0.20
2018-01-22T05:51:32.836Z,0.30
2018-01-22T05:54:00.884Z,0.20
2018-01-22T05:56:28.956Z,0.20
2018-01-22T05:58:56.989Z,0.20
2018-01-22T06:01:25.796Z,0.30
2018-01-22T06:03:53.841Z,0.20
2018-01-22T06:06:21.863Z,0.30
2018-01-22T06:08:49.912Z,0.30
2018-01-22T06:11:17.942Z,0.40
2018-01-22T06:13:45.997Z,0.40
2018-01-22T06:16:14.816Z,0.30
2018-01-22T06:18:42.860Z,0.30
2018-01-22T06:21:10.903Z,0.30
2018-01-22T06:23:38.945Z,0.30
2018-01-22T06:26:07.764Z,0.30
2018-01-22T06:28:35.809Z,0.30
2018-01-22T06:31:03.863Z,0.30
2018-01-22T06:33:31.885Z,0.40
2018-01-22T06:35:59.957Z,0.30
2018-01-22T06:38:28.028Z,0.40
2018-01-22T06:40:56.120Z,0.40
2018-01-22T06:43:24.120Z,0.40
2018-01-22T06:45:52.256Z,0.40
2018-01-22T06:48:20.300Z,0.30
2018-01-22T06:50:49.092Z,0.40
2018-01-22T06:53:17.140Z,0.40
2018-01-22T06:55:45.198Z,0.40
2018-01-22T06:58:13.248Z,0.30
2018-01-22T07:00:41.299Z,0.40
2018-01-22T07:03:09.312Z,0.40
2018-01-22T07:05:37.364Z,0.30
2018-01-22T07:08:05.420Z,0.40
2018-01-22T07:10:33.481Z,0.40
2018-01-22T07:13:02.285Z,0.50
2018-01-22T07:15:31.108Z,0.40
2018-01-22T07:17:59.156Z,0.40
2018-01-22T07:20:27.201Z,0.40
2018-01-22T07:22:55.235Z,0.40
2018-01-22T07:25:24.040Z,0.50
2018-01-22T07:27:52.097Z,0.50
2018-01-22T07:30:20.126Z,0.50
2018-01-22T07:32:48.170Z,0.50
2018-01-22T07:35:16.193Z,0.60
2018-01-22T07:37:44.248Z,0.60
2018-01-22T07:40:13.047Z,0.50
2018-01-22T07:42:41.861Z,0.50
2018-01-22T07:45:10.661Z,0.60
2018-01-22T07:47:39.476Z,0.60
2018-01-22T07:50:07.521Z,0.60
2018-01-22T07:52:35.550Z,0.60
2018-01-22T07:55:03.625Z,0.70
2018-01-22T07:57:31.665Z,0.70
2018-01-22T07:59:59.713Z,0.80
2018-01-22T08:02:27.765Z,0.80
2018-01-22T08:04:55.804Z,0.80
2018-01-22T08:07:23.852Z,0.80
2018-01-22T08:09:51.881Z,0.90
2018-01-22T08:12:21.432Z,0.80
2018-01-22T08:14:50.228Z,0.90
2018-01-22T08:17:19.049Z,0.90
2018-01-22T08:19:47.099Z,0.80
2018-01-22T08:22:15.154Z,0.90
2018-01-22T08:24:43.194Z,0.90
2018-01-22T08:27:11.224Z,0.90
2018-01-22T08:29:39.281Z,0.90
2018-01-22T08:32:07.316Z,1.00
2018-01-22T08:34:35.373Z,1.00
2018-01-22T08:37:03.444Z,1.00
2018-01-22T08:39:31.464Z,1.00
2018-01-22T08:41:59.557Z,1.00
2018-01-22T08:44:27.561Z,1.10
2018-01-22T08:46:55.616Z,1.10
2018-01-22T08:49:23.648Z,1.20
2018-01-22T08:51:51.692Z,1.10
2018-01-22T08:54:20.504Z,1.20
2018-01-22T08:56:49.349Z,1.20
2018-01-22T08:59:17.389Z,1.10
2018-01-22T09:01:46.192Z,1.20
2018-01-22T09:04:15.008Z,1.10
2018-01-22T09:06:43.041Z,1.10
2018-01-22T09:09:11.087Z,1.10
2018-01-22T09:11:39.128Z,1.10
2018-01-22T09:14:07.162Z,1.20
2018-01-22T09:16:35.219Z,1.20
2018-01-22T09:19:04.017Z,1.20
2018-01-22T09:21:32.828Z,1.20
2018-01-22T09:24:00.865Z,1.20
2018-01-22T09:26:28.920Z,1.20
2018-01-22T09:28:56.961Z,1.20
2018-01-22T09:31:25.764Z,1.30
2018-01-22T09:33:54.577Z,1.30
2018-01-22T09:36:22.613Z,1.20
2018-01-22T09:38:50.656Z,1.30
2018-01-22T09:41:18.693Z,1.30
2018-01-22T09:43:46.731Z,1.30
2018-01-22T09:46:14.780Z,1.40
2018-01-22T09:48:43.572Z,1.50
2018-01-22T09:51:11.627Z,1.40
2018-01-22T09:53:39.667Z,1.50
2018-01-22T09:56:08.464Z,1.50
2018-01-22T09:58:36.507Z,1.50
2018-01-22T10:01:04.548Z,1.60
2018-01-22T10:03:32.608Z,1.60
2018-01-22T10:06:01.400Z,1.60
2018-01-22T10:08:30.221Z,1.60
2018-01-22T10:10:58.254Z,1.60
2018-01-22T10:13:26.297Z,1.60
2018-01-22T10:15:54.333Z,1.70
2018-01-22T10:18:22.401Z,1.70
2018-01-22T10:20:50.449Z,1.60
2018-01-22T10:23:18.480Z,1.60
2018-01-22T10:25:46.527Z,1.70
2018-01-22T10:28:14.580Z,1.70
2018-01-22T10:30:43.441Z,1.80
2018-01-22T10:33:11.424Z,1.70
2018-01-22T10:35:39.481Z,1.80
2018-01-22T10:38:07.512Z,2.00
2018-01-22T10:40:35.557Z,2.10
2018-01-22T10:43:03.600Z,1.90
2018-01-22T10:45:32.388Z,1.80
2018-01-22T10:48:01.205Z,1.80
2018-01-22T10:50:30.007Z,1.80
2018-01-22T10:52:58.812Z,1.90
2018-01-22T10:55:26.848Z,1.80
2018-01-22T10:57:54.893Z,1.90
2018-01-22T11:00:22.948Z,1.90
2018-01-22T11:02:50.988Z,2.00
2018-01-22T11:05:19.038Z,2.10
2018-01-22T11:07:47.060Z,2.10
2018-01-22T11:10:15.109Z,2.20
2018-01-22T11:12:43.144Z,2.20
2018-01-22T11:15:11.192Z,2.20
2018-01-22T11:17:39.217Z,2.20
2018-01-22T11:20:07.260Z,2.10
2018-01-22T11:22:35.288Z,2.10
2018-01-22T11:25:03.360Z,2.10
2018-01-22T11:27:31.424Z,2.10
2018-01-22T11:29:59.472Z,1.90
2018-01-22T11:32:27.525Z,2.00
2018-01-22T11:34:55.552Z,2.00
2018-01-22T11:37:23.604Z,2.00
2018-01-22T11:39:52.400Z,2.00
2018-01-22T11:42:21.217Z,2.00
2018-01-22T11:44:49.260Z,2.00
2018-01-22T11:47:17.297Z,2.10
2018-01-22T11:49:45.357Z,2.20
2018-01-22T11:52:14.152Z,2.30
2018-01-22T11:54:42.973Z,2.20
2018-01-22T11:57:11.768Z,2.30
2018-01-22T11:59:40.592Z,2.40
2018-01-22T12:02:08.641Z,2.30
2018-01-22T12:04:37.440Z,2.40
2018-01-22T12:07:06.272Z,2.50
2018-01-22T12:09:34.302Z,2.50
2018-01-22T12:12:02.357Z,2.60
2018-01-22T12:14:30.432Z,2.70
2018-01-22T12:16:58.480Z,2.70
2018-01-22T12:19:26.501Z,2.60
2018-01-22T12:21:54.545Z,2.80
2018-01-22T12:24:23.345Z,2.70
2018-01-22T12:26:52.171Z,2.60
2018-01-22T12:29:20.212Z,2.60
2018-01-22T12:31:48.236Z,2.50
2018-01-22T12:34:16.280Z,2.40
2018-01-22T12:36:44.507Z,2.40
2018-01-22T12:39:13.321Z,2.40
2018-01-22T12:41:41.353Z,2.30
2018-01-22T12:44:09.391Z,2.40
2018-01-22T12:46:37.424Z,2.40
2018-01-22T12:49:05.476Z,2.50
2018-01-22T12:51:33.508Z,2.50
2018-01-22T12:54:02.325Z,2.40
2018-01-22T12:56:31.165Z,2.40
2018-01-22T12:58:59.206Z,2.40
2018-01-22T13:01:28.004Z,2.30
2018-01-22T13:03:56.822Z,2.30
2018-01-22T13:06:24.880Z,2.30
2018-01-22T13:08:52.941Z,2.40
2018-01-22T13:11:21.073Z,2.40
2018-01-22T13:13:49.876Z,2.30
2018-01-22T13:16:17.904Z,2.30
2018-01-22T13:18:45.957Z,2.40
2018-01-22T13:21:14.008Z,2.40
2018-01-22T13:23:42.809Z,2.40
2018-01-22T13:26:10.849Z,2.40
2018-01-22T13:28:38.880Z,2.40
2018-01-22T13:31:07.706Z,2.50
2018-01-22T13:33:35.732Z,2.50
2018-01-22T13:36:03.784Z,2.50
2018-01-22T13:38:31.813Z,2.60
2018-01-22T13:41:05.652Z,2.70
2018-01-22T13:43:34.448Z,2.70
2018-01-22T13:46:03.273Z,2.70
2018-01-22T13:48:32.096Z,2.70
2018-01-22T13:51:01.566Z,2.60
2018-01-22T13:53:29.612Z,2.60
2018-01-22T13:55:57.649Z,2.50
2018-01-22T13:58:26.473Z,2.40
2018-01-22T14:00:54.492Z,2.40
2018-01-22T14:03:22.550Z,2.40
2018-01-22T14:05:50.592Z,2.30
2018-01-22T14:08:19.383Z,2.30
2018-01-22T14:10:47.449Z,2.30
2018-01-22T14:13:15.465Z,2.30
2018-01-22T14:15:44.404Z,2.30
2018-01-22T14:18:12.436Z,2.30
2018-01-22T14:20:41.252Z,2.40
2018-01-22T14:23:10.064Z,2.40
2018-01-22T14:25:38.112Z,2.40
2018-01-22T14:28:06.156Z,2.40
2018-01-22T14:30:34.193Z,2.30
2018-01-22T14:33:03.005Z,2.40
2018-01-22T14:35:31.801Z,2.50
2018-01-22T14:38:00.653Z,2.50
2018-01-22T14:40:28.688Z,2.40
2018-01-22T14:42:57.501Z,2.30
2018-01-22T14:45:26.312Z,2.40
2018-01-22T14:47:54.344Z,2.30
2018-01-22T14:50:22.391Z,2.40
2018-01-22T14:52:50.428Z,2.30
2018-01-22T14:55:18.475Z,2.40
2018-01-22T14:57:46.501Z,2.40
2018-01-22T15:00:15.316Z,2.30
2018-01-22T15:02:44.112Z,2.50
2018-01-22T15:05:12.920Z,2.40
2018-01-22T15:07:41.740Z,2.80
2018-01-22T15:10:09.782Z,2.70
2018-01-22T15:12:37.824Z,2.60
2018-01-22T15:15:05.856Z,2.60
2018-01-22T15:17:33.909Z,2.40
2018-01-22T15:20:01.937Z,2.40
2018-01-22T15:22:30.277Z,2.30
2018-01-22T15:24:58.666Z,2.40
2018-01-22T15:27:26.725Z,2.30
2018-01-22T15:29:54.773Z,2.20
2018-01-22T15:32:23.216Z,2.20
2018-01-22T15:34:51.595Z,2.20
2018-01-22T15:37:19.656Z,2.10
2018-01-22T15:39:48.460Z,2.10
2018-01-22T15:42:16.520Z,2.10
2018-01-22T15:44:45.361Z,2.20
2018-01-22T15:47:13.676Z,2.10
2018-01-22T15:49:41.732Z,2.20
2018-01-22T15:52:09.924Z,2.20
2018-01-22T15:54:38.338Z,2.20
2018-01-22T15:57:06.372Z,2.20
2018-01-22T15:59:35.179Z,2.20
2018-01-22T16:02:03.412Z,2.10
2018-01-22T16:04:31.449Z,2.20
2018-01-22T16:07:00.284Z,2.20
2018-01-22T16:09:28.344Z,2.20
2018-01-22T16:11:57.171Z,2.30
2018-01-22T16:14:25.247Z,2.30
2018-01-22T16:16:53.360Z,2.30
2018-01-22T16:19:21.408Z,2.30
2018-01-22T16:21:49.449Z,2.40
2018-01-22T16:24:17.497Z,2.40
2018-01-22T16:26:46.136Z,2.40
2018-01-22T16:29:14.185Z,2.50
2018-01-22T16:31:42.216Z,2.50
2018-01-22T16:34:10.260Z,2.60
2018-01-22T16:36:38.316Z,2.60
2018-01-22T16:39:06.350Z,2.70
2018-01-22T16:41:34.401Z,2.70
2018-01-22T16:44:02.435Z,2.60
2018-01-22T16:46:31.255Z,2.70
2018-01-22T16:48:59.289Z,2.70
2018-01-22T16:51:27.352Z,2.60
2018-01-22T16:53:55.378Z,2.60
2018-01-22T16:56:23.445Z,2.70
2018-01-22T16:58:51.467Z,2.70
2018-01-22T17:01:19.521Z,2.70
2018-01-22T17:03:47.564Z,2.80
2018-01-22T17:06:15.593Z,2.80
2018-01-22T17:08:43.649Z,2.80
2018-01-22T17:11:11.672Z,2.80
2018-01-22T17:13:40.497Z,2.80
2018-01-22T17:16:08.524Z,2.70
2018-01-22T17:18:36.580Z,2.80
2018-01-22T17:21:04.621Z,2.80
2018-01-22T17:23:33.449Z,2.90
2018-01-22T17:26:01.497Z,2.90
2018-01-22T17:28:29.532Z,2.90
2018-01-22T17:30:57.611Z,2.80
2018-01-22T17:33:25.656Z,2.80
2018-01-22T17:35:54.487Z,2.90
2018-01-22T17:38:22.565Z,2.80
2018-01-22T17:40:50.625Z,2.90
2018-01-22T17:43:19.456Z,2.90
2018-01-22T17:45:47.497Z,2.90
2018-01-22T17:48:15.556Z,2.90
2018-01-22T17:50:43.596Z,2.90
2018-01-22T17:53:11.660Z,3.00
2018-01-22T17:55:39.693Z,3.00
2018-01-22T17:58:07.752Z,3.10
2018-01-22T18:00:35.807Z,3.10
2018-01-22T18:03:03.880Z,3.10
2018-01-22T18:05:31.949Z,3.10
2018-01-22T18:08:00.035Z,3.10
2018-01-22T18:10:28.108Z,3.10
2018-01-22T18:12:56.159Z,3.10
2018-01-22T18:15:24.977Z,3.10
2018-01-22T18:17:53.141Z,3.10
2018-01-22T18:20:21.943Z,3.10
2018-01-22T18:22:50.841Z,3.10
2018-01-22T18:25:18.896Z,3.00
2018-01-22T18:27:46.955Z,3.00
2018-01-22T18:30:15.028Z,3.10
2018-01-22T18:32:43.375Z,3.00
2018-01-22T18:35:12.252Z,3.00
2018-01-22T18:37:40.277Z,3.00
2018-01-22T18:40:09.112Z,3.00
2018-01-22T18:42:37.165Z,3.00
2018-01-22T18:45:05.964Z,3.10
2018-01-22T18:47:34.804Z,3.20
2018-01-22T18:50:02.850Z,3.10
2018-01-22T18:52:31.881Z,3.20
2018-01-22T18:54:59.951Z,3.10
2018-01-22T18:57:28.792Z,2.90
2018-01-22T18:59:56.853Z,2.90
2018-01-22T19:02:24.909Z,2.90
2018-01-22T19:04:53.708Z,2.70
2018-01-22T19:07:22.525Z,2.70
2018-01-22T19:09:50.568Z,2.70
2018-01-22T19:12:18.624Z,2.70
2018-01-22T19:14:46.662Z,2.70
2018-01-22T19:17:15.486Z,2.70
2018-01-22T19:19:43.529Z,2.70
2018-01-22T19:22:11.580Z,2.70
2018-01-22T19:24:39.628Z,2.70
2018-01-22T19:27:07.669Z,2.70
2018-01-22T19:29:35.725Z,2.80
2018-01-22T19:32:03.761Z,2.90
2018-01-22T19:34:32.580Z,2.90
2018-01-22T19:37:01.420Z,2.90
2018-01-22T19:39:29.472Z,2.90
2018-01-22T19:41:57.529Z,2.90
2018-01-22T19:44:25.564Z,2.90
2018-01-22T19:46:53.632Z,2.80
2018-01-22T19:49:21.702Z,2.80
2018-01-22T19:51:50.496Z,2.80
2018-01-22T19:54:19.324Z,2.80
2018-01-22T19:56:47.356Z,2.80
2018-01-22T19:59:15.424Z,2.80
2018-01-22T20:01:44.284Z,2.80
2018-01-22T20:04:13.025Z,2.80
2018-01-22T20:06:41.084Z,2.80
2018-01-22T20:09:09.116Z,2.90
2018-01-22T20:11:37.280Z,2.90
2018-01-22T20:14:05.362Z,2.90
2018-01-22T20:16:33.397Z,2.90
2018-01-22T20:19:02.248Z,2.80
2018-01-22T20:21:30.296Z,2.80
2018-01-22T20:23:58.356Z,2.80
2018-01-22T20:26:27.181Z,2.90
2018-01-22T20:28:55.231Z,2.90
2018-01-22T20:31:23.289Z,3.00
2018-01-22T20:33:51.324Z,3.00
2018-01-22T20:36:19.385Z,3.10
2018-01-22T20:38:48.216Z,3.00
2018-01-22T20:41:16.273Z,3.00
2018-01-22T20:43:45.110Z,3.00
2018-01-22T20:46:13.140Z,2.90
2018-01-22T20:48:41.211Z,2.90
2018-01-22T20:51:09.273Z,2.90
2018-01-22T20:53:37.445Z,2.90
2018-01-22T20:56:05.553Z,2.90
2018-01-22T20:58:33.589Z,2.90
2018-01-22T21:01:01.645Z,2.90
2018-01-22T21:03:31.237Z,2.80
2018-01-22T21:05:59.292Z,2.80
2018-01-22T21:08:27.569Z,2.90
2018-01-22T21:10:56.380Z,2.90
2018-01-22T21:13:24.458Z,2.80
2018-01-22T21:15:53.308Z,2.90
2018-01-22T21:18:21.337Z,2.90
2018-01-22T21:20:49.393Z,2.90
2018-01-22T21:23:17.432Z,2.80
2018-01-22T21:25:45.481Z,2.80
2018-01-22T21:28:13.516Z,2.90
2018-01-22T21:30:41.575Z,2.90
2018-01-22T21:33:09.644Z,2.90
2018-01-22T21:35:38.444Z,2.90
2018-01-22T21:38:07.285Z,2.90
2018-01-22T21:40:35.320Z,2.90
2018-01-22T21:43:03.429Z,2.90
2018-01-22T21:45:31.469Z,2.90
2018-01-22T21:47:59.557Z,2.90
2018-01-22T21:50:27.633Z,2.90
2018-01-22T21:52:55.993Z,2.90
2018-01-22T21:55:24.057Z,2.90
2018-01-22T21:57:52.096Z,2.90
2018-01-22T22:00:20.161Z,2.90
2018-01-22T22:02:48.213Z,2.90
2018-01-22T22:05:16.260Z,2.90
2018-01-22T22:07:45.930Z,3.10
2018-01-22T22:10:13.969Z,3.10
2018-01-22T22:12:42.024Z,3.40
2018-01-22T22:15:10.093Z,3.50
2018-01-22T22:17:38.148Z,3.60
2018-01-22T22:20:06.956Z,3.80
2018-01-22T22:22:35.006Z,3.70
2018-01-22T22:25:03.812Z,3.80
2018-01-22T22:27:31.885Z,3.90
2018-01-22T22:29:59.943Z,4.00
2018-01-22T22:32:28.003Z,4.10
2018-01-22T22:34:56.044Z,4.20
2018-01-22T22:37:24.101Z,4.30
2018-01-22T22:39:52.187Z,4.30
2018-01-22T22:42:20.220Z,4.40
2018-01-22T22:44:49.049Z,4.50
2018-01-22T22:47:17.104Z,4.50
2018-01-22T22:49:45.926Z,4.50
2018-01-22T22:52:13.988Z,4.50
2018-01-22T22:54:42.800Z,4.50
2018-01-22T22:57:10.853Z,4.50
2018-01-22T22:59:39.672Z,4.60
2018-01-22T23:02:08.501Z,4.60
2018-01-22T23:04:36.560Z,4.60
2018-01-22T23:07:05.377Z,4.60
2018-01-22T23:09:34.200Z,4.70
2018-01-22T23:12:02.276Z,4.70
2018-01-22T23:14:30.304Z,4.70
2018-01-22T23:16:58.377Z,4.70
2018-01-22T23:19:26.501Z,4.80
2018-01-22T23:21:55.320Z,4.80
2018-01-22T23:24:23.496Z,4.70
2018-01-22T23:26:52.304Z,4.70
2018-01-22T23:29:20.360Z,4.70
2018-01-22T23:31:48.397Z,4.70
2018-01-22T23:34:16.449Z,4.70
2018-01-22T23:36:45.941Z,4.70
2018-01-22T23:39:13.969Z,4.60
2018-01-22T23:41:42.020Z,4.60
2018-01-22T23:44:10.845Z,4.60
2018-01-22T23:46:38.899Z,4.50
2018-01-22T23:49:06.976Z,4.70
2018-01-22T23:51:35.112Z,4.50
2018-01-22T23:54:03.164Z,4.50
2018-01-22T23:56:31.973Z,4.60
2018-01-22T23:59:00.809Z,4.60
